createdAt,value
2023-02-17T00:03:05.475Z,8.1
2023-02-17T00:22:25.708Z,8.3
2023-02-17T00:41:44.130Z,8.3
2023-02-17T01:01:06.065Z,8.4
2023-02-17T01:20:22.345Z,8.5
2023-02-17T01:39:40.884Z,8.6
2023-02-17T01:59:00.466Z,8.7
2023-02-17T02:18:19.824Z,8.7
2023-02-17T02:37:38.877Z,8.9
2023-02-17T02:56:58.072Z,8.9
2023-02-17T03:16:16.792Z,9.1
2023-02-17T03:35:36.397Z,9.1
2023-02-17T03:54:55.924Z,9.1
2023-02-17T04:14:15.799Z,9.3
2023-02-17T04:33:34.923Z,9.2
2023-02-17T04:52:53.994Z,9.3
2023-02-17T05:12:12.572Z,9.3
2023-02-17T05:31:30.370Z,9.3
2023-02-17T05:50:47.941Z,9.4
2023-02-17T06:10:06.852Z,9.5
2023-02-17T06:29:24.199Z,9.4
2023-02-17T06:48:42.310Z,9.4
2023-02-17T07:08:02.113Z,9.5
2023-02-17T07:27:21.175Z,9.5
2023-02-17T07:46:40.877Z,9.5
2023-02-17T08:05:59.923Z,9.4
2023-02-17T08:25:18.527Z,9.5
2023-02-17T08:44:39.477Z,9.6
2023-02-17T09:03:57.195Z,9.8
2023-02-17T09:23:17.879Z,10.1
2023-02-17T09:42:39.317Z,10.6
2023-02-17T10:02:00.179Z,11
2023-02-17T10:21:19.500Z,11.4
2023-02-17T10:40:40.370Z,12.2
2023-02-17T11:00:00.634Z,12.8
2023-02-17T11:19:18.662Z,13.1
2023-02-17T11:38:38.596Z,13.3
2023-02-17T11:57:59.312Z,13.1
2023-02-17T12:17:19.501Z,12.6
2023-02-17T12:36:38.886Z,12.5
2023-02-17T12:55:55.189Z,12.6
2023-02-17T13:15:14.582Z,12.7
2023-02-17T13:34:34.260Z,12.6
2023-02-17T13:53:52.574Z,12.4
2023-02-17T14:13:11.211Z,12.4
2023-02-17T14:32:30.360Z,12.6
2023-02-17T14:51:49.329Z,12.8
2023-02-17T15:11:09.387Z,12.4
2023-02-17T15:30:29.301Z,12
2023-02-17T15:49:44.904Z,12.8
2023-02-17T16:09:02.922Z,12.6
2023-02-17T16:28:20.866Z,12.1
2023-02-17T16:47:38.856Z,11.7
2023-02-17T17:06:58.140Z,11.6
2023-02-17T17:26:16.727Z,11.7
2023-02-17T17:45:34.197Z,11.7
2023-02-17T18:04:53.034Z,11.6
2023-02-17T18:24:09.132Z,11.4
2023-02-17T18:43:27.345Z,11.4
2023-02-17T19:02:45.996Z,11.3
2023-02-17T19:22:04.710Z,11.3
2023-02-17T19:41:23.380Z,11.3
2023-02-17T20:00:41.903Z,11.2
2023-02-17T20:20:01.355Z,11.2
2023-02-17T20:39:20.226Z,11.1
2023-02-17T20:58:39.882Z,11.1
2023-02-17T21:17:58.628Z,10.9
2023-02-17T21:37:16.973Z,10.9
2023-02-17T21:56:35.849Z,10.9
2023-02-17T22:15:54.726Z,10.7
2023-02-17T22:35:13.441Z,10.5
2023-02-17T22:54:31.940Z,10.6
2023-02-17T23:13:51.041Z,10.6
2023-02-17T23:33:10.902Z,10.6
2023-02-17T23:52:29.926Z,10.4
